sensor_id;sensor_type;location;lat;lon;timestamp;pressure;altitude;pressure_sealevel;temperature;humidity
788;BME280;16074;42.708;23.312;2023-07-28T00:00:12;142381.38;;;16.83;nan
788;BME280;16074;42.708;23.312;2023-07-28T00:02:43;142368.06;;;16.78;nan
788;BME280;16074;42.708;23.312;2023-07-28T00:05:11;142355.97;;;16.73;nan
788;BME280;16074;42.708;23.312;2023-07-28T00:07:41;142346.28;;;16.69;nan
788;BME280;16074;42.708;23.312;2023-07-28T00:10:10;142360.81;;;16.75;nan
788;BME280;16074;42.708;23.312;2023-07-28T00:12:39;142345.09;;;16.69;nan
788;BME280;16074;42.708;23.312;2023-07-28T00:15:07;142323.28;;;16.60;nan
788;BME280;16074;42.708;23.312;2023-07-28T00:17:36;142314.78;;;16.56;nan
788;BME280;16074;42.708;23.312;2023-07-28T00:20:05;142318.44;;;16.58;nan
788;BME280;16074;42.708;23.312;2023-07-28T00:22:34;142301.47;;;16.51;nan
788;BME280;16074;42.708;23.312;2023-07-28T00:25:05;142273.66;;;16.39;nan
788;BME280;16074;42.708;23.312;2023-07-28T00:27:33;142288.13;;;16.45;nan
788;BME280;16074;42.708;23.312;2023-07-28T00:30:01;142285.72;;;16.44;nan
788;BME280;16074;42.708;23.312;2023-07-28T00:32:30;142277.25;;;16.41;nan
788;BME280;16074;42.708;23.312;2023-07-28T00:34:59;142251.81;;;16.30;nan
788;BME280;16074;42.708;23.312;2023-07-28T00:37:27;142249.38;;;16.29;nan
788;BME280;16074;42.708;23.312;2023-07-28T00:39:55;142248.16;;;16.29;nan
788;BME280;16074;42.708;23.312;2023-07-28T00:42:25;142253.00;;;16.31;nan
788;BME280;16074;42.708;23.312;2023-07-28T00:44:53;142227.59;;;16.20;nan
788;BME280;16074;42.708;23.312;2023-07-28T00:47:22;142228.78;;;16.21;nan
788;BME280;16074;42.708;23.312;2023-07-28T00:49:50;142221.50;;;16.18;nan
788;BME280;16074;42.708;23.312;2023-07-28T00:52:18;142208.22;;;16.12;nan
788;BME280;16074;42.708;23.312;2023-07-28T00:54:47;142208.22;;;16.12;nan
788;BME280;16074;42.708;23.312;2023-07-28T00:57:15;142216.69;;;16.16;nan
788;BME280;16074;42.708;23.312;2023-07-28T00:59:46;142220.34;;;16.17;nan
788;BME280;16074;42.708;23.312;2023-07-28T01:02:17;142217.91;;;16.16;nan
788;BME280;16074;42.708;23.312;2023-07-28T01:04:47;142211.88;;;16.14;nan
788;BME280;16074;42.708;23.312;2023-07-28T01:07:20;142182.81;;;16.02;nan
788;BME280;16074;42.708;23.312;2023-07-28T01:09:56;142167.06;;;15.95;nan
788;BME280;16074;42.708;23.312;2023-07-28T01:12:25;142163.47;;;15.94;nan
788;BME280;16074;42.708;23.312;2023-07-28T01:14:55;142167.06;;;15.95;nan
788;BME280;16074;42.708;23.312;2023-07-28T01:17:23;142170.72;;;15.97;nan
788;BME280;16074;42.708;23.312;2023-07-28T01:19:52;142136.81;;;15.83;nan
788;BME280;16074;42.708;23.312;2023-07-28T01:22:46;142095.69;;;15.66;nan
788;BME280;16074;42.708;23.312;2023-07-28T01:25:22;142105.34;;;15.70;nan
788;BME280;16074;42.708;23.312;2023-07-28T01:27:58;142109.00;;;15.71;nan
788;BME280;16074;42.708;23.312;2023-07-28T01:30:29;142094.50;;;15.65;nan
788;BME280;16074;42.708;23.312;2023-07-28T01:32:57;142115.03;;;15.74;nan
788;BME280;16074;42.708;23.312;2023-07-28T01:35:26;142116.28;;;15.74;nan
788;BME280;16074;42.708;23.312;2023-07-28T01:37:55;142113.84;;;15.73;nan
788;BME280;16074;42.708;23.312;2023-07-28T01:40:23;142112.63;;;15.73;nan
788;BME280;16074;42.708;23.312;2023-07-28T01:42:51;142105.34;;;15.70;nan
788;BME280;16074;42.708;23.312;2023-07-28T01:45:22;142101.75;;;15.68;nan
788;BME280;16074;42.708;23.312;2023-07-28T01:47:50;142098.09;;;15.67;nan
788;BME280;16074;42.708;23.312;2023-07-28T01:50:19;142110.19;;;15.72;nan
788;BME280;16074;42.708;23.312;2023-07-28T01:52:47;142100.53;;;15.68;nan
788;BME280;16074;42.708;23.312;2023-07-28T01:55:15;142092.06;;;15.64;nan
788;BME280;16074;42.708;23.312;2023-07-28T01:57:51;142073.94;;;15.57;nan
788;BME280;16074;42.708;23.312;2023-07-28T02:00:20;142058.19;;;15.51;nan
788;BME280;16074;42.708;23.312;2023-07-28T02:02:50;142057.00;;;15.50;nan
788;BME280;16074;42.708;23.312;2023-07-28T02:05:18;142050.94;;;15.48;nan
788;BME280;16074;42.708;23.312;2023-07-28T02:07:47;142050.94;;;15.48;nan
788;BME280;16074;42.708;23.312;2023-07-28T02:10:15;142050.94;;;15.48;nan
788;BME280;16074;42.708;23.312;2023-07-28T02:12:43;142030.38;;;15.39;nan
788;BME280;16074;42.708;23.312;2023-07-28T02:15:13;142050.94;;;15.48;nan
788;BME280;16074;42.708;23.312;2023-07-28T02:17:42;142061.84;;;15.52;nan
788;BME280;16074;42.708;23.312;2023-07-28T02:20:12;142058.19;;;15.51;nan
788;BME280;16074;42.708;23.312;2023-07-28T02:22:42;142057.00;;;15.50;nan
788;BME280;16074;42.708;23.312;2023-07-28T02:25:11;142055.78;;;15.50;nan
788;BME280;16074;42.708;23.312;2023-07-28T02:27:39;142072.72;;;15.56;nan
788;BME280;16074;42.708;23.312;2023-07-28T02:30:08;142054.59;;;15.49;nan
788;BME280;16074;42.708;23.312;2023-07-28T02:32:37;142063.03;;;15.52;nan
788;BME280;16074;42.708;23.312;2023-07-28T02:35:06;142041.25;;;15.44;nan
788;BME280;16074;42.708;23.312;2023-07-28T02:37:36;142044.91;;;15.45;nan
788;BME280;16074;42.708;23.312;2023-07-28T02:40:06;142030.38;;;15.39;nan
788;BME280;16074;42.708;23.312;2023-07-28T02:42:34;142014.63;;;15.33;nan
788;BME280;16074;42.708;23.312;2023-07-28T02:45:03;141998.88;;;15.26;nan
788;BME280;16074;42.708;23.312;2023-07-28T02:47:32;142007.41;;;15.30;nan
788;BME280;16074;42.708;23.312;2023-07-28T02:50:00;142017.06;;;15.34;nan
788;BME280;16074;42.708;23.312;2023-07-28T02:52:29;142019.47;;;15.35;nan
788;BME280;16074;42.708;23.312;2023-07-28T02:54:59;141975.91;;;15.17;nan
788;BME280;16074;42.708;23.312;2023-07-28T02:57:29;141956.56;;;15.09;nan
788;BME280;16074;42.708;23.312;2023-07-28T02:59:57;141915.44;;;14.92;nan
788;BME280;16074;42.708;23.312;2023-07-28T03:02:25;141919.09;;;14.93;nan
788;BME280;16074;42.708;23.312;2023-07-28T03:04:57;141934.78;;;15.00;nan
788;BME280;16074;42.708;23.312;2023-07-28T03:07:47;141939.63;;;15.02;nan
788;BME280;16074;42.708;23.312;2023-07-28T03:10:17;141925.13;;;14.96;nan
788;BME280;16074;42.708;23.312;2023-07-28T03:12:46;141936.03;;;15.00;nan
788;BME280;16074;42.708;23.312;2023-07-28T03:15:14;141933.63;;;14.99;nan
788;BME280;16074;42.708;23.312;2023-07-28T03:17:42;141945.66;;;15.04;nan
788;BME280;16074;42.708;23.312;2023-07-28T03:20:11;141934.78;;;15.00;nan
788;BME280;16074;42.708;23.312;2023-07-28T03:22:40;141922.69;;;14.95;nan
788;BME280;16074;42.708;23.312;2023-07-28T03:25:09;141933.63;;;14.99;nan
788;BME280;16074;42.708;23.312;2023-07-28T03:27:39;141942.06;;;15.03;nan
788;BME280;16074;42.708;23.312;2023-07-28T03:30:07;141917.88;;;14.93;nan
788;BME280;16074;42.708;23.312;2023-07-28T03:32:38;141933.63;;;14.99;nan
788;BME280;16074;42.708;23.312;2023-07-28T03:35:07;141919.09;;;14.93;nan
788;BME280;16074;42.708;23.312;2023-07-28T03:37:41;141938.44;;;15.01;nan
788;BME280;16074;42.708;23.312;2023-07-28T03:40:10;141937.22;;;15.01;nan
788;BME280;16074;42.708;23.312;2023-07-28T03:42:52;141939.63;;;15.02;nan
788;BME280;16074;42.708;23.312;2023-07-28T03:45:21;141929.97;;;14.98;nan
788;BME280;16074;42.708;23.312;2023-07-28T03:47:49;141939.63;;;15.02;nan
788;BME280;16074;42.708;23.312;2023-07-28T03:50:18;141937.22;;;15.01;nan
788;BME280;16074;42.708;23.312;2023-07-28T03:52:46;141942.06;;;15.03;nan
788;BME280;16074;42.708;23.312;2023-07-28T03:55:15;141962.59;;;15.11;nan
788;BME280;16074;42.708;23.312;2023-07-28T03:57:43;141966.25;;;15.13;nan
788;BME280;16074;42.708;23.312;2023-07-28T04:00:13;141978.34;;;15.18;nan
788;BME280;16074;42.708;23.312;2023-07-28T04:02:42;141978.34;;;15.18;nan
788;BME280;16074;42.708;23.312;2023-07-28T04:05:10;141989.22;;;15.22;nan
788;BME280;16074;42.708;23.312;2023-07-28T04:07:39;141973.50;;;15.16;nan
788;BME280;16074;42.708;23.312;2023-07-28T04:10:10;141989.22;;;15.22;nan
788;BME280;16074;42.708;23.312;2023-07-28T04:12:38;141992.84;;;15.24;nan
788;BME280;16074;42.708;23.312;2023-07-28T04:15:09;142006.19;;;15.29;nan
788;BME280;16074;42.708;23.312;2023-07-28T04:17:39;142008.59;;;15.30;nan
788;BME280;16074;42.708;23.312;2023-07-28T04:20:08;141990.44;;;15.23;nan
788;BME280;16074;42.708;23.312;2023-07-28T04:22:37;141962.59;;;15.11;nan
788;BME280;16074;42.708;23.312;2023-07-28T04:25:06;141966.25;;;15.13;nan
788;BME280;16074;42.708;23.312;2023-07-28T04:27:37;141931.19;;;14.98;nan
788;BME280;16074;42.708;23.312;2023-07-28T04:30:06;141957.75;;;15.09;nan
788;BME280;16074;42.708;23.312;2023-07-28T04:32:34;141951.72;;;15.07;nan
788;BME280;16074;42.708;23.312;2023-07-28T04:35:12;141957.75;;;15.09;nan
788;BME280;16074;42.708;23.312;2023-07-28T04:38:19;141949.31;;;15.06;nan
788;BME280;16074;42.708;23.312;2023-07-28T04:40:53;141962.59;;;15.11;nan
788;BME280;16074;42.708;23.312;2023-07-28T04:43:33;141974.69;;;15.16;nan
788;BME280;16074;42.708;23.312;2023-07-28T04:46:01;141969.84;;;15.14;nan
788;BME280;16074;42.708;23.312;2023-07-28T04:48:30;141981.94;;;15.19;nan
788;BME280;16074;42.708;23.312;2023-07-28T04:51:02;141992.84;;;15.24;nan
788;BME280;16074;42.708;23.312;2023-07-28T04:53:48;141990.44;;;15.23;nan
788;BME280;16074;42.708;23.312;2023-07-28T04:56:21;141997.69;;;15.26;nan
788;BME280;16074;42.708;23.312;2023-07-28T04:58:49;141980.75;;;15.19;nan
788;BME280;16074;42.708;23.312;2023-07-28T05:01:17;142000.16;;;15.27;nan
788;BME280;16074;42.708;23.312;2023-07-28T05:03:47;142000.16;;;15.27;nan
788;BME280;16074;42.708;23.312;2023-07-28T05:06:26;142017.06;;;15.34;nan
788;BME280;16074;42.708;23.312;2023-07-28T05:08:54;142012.22;;;15.32;nan
788;BME280;16074;42.708;23.312;2023-07-28T05:11:40;141994.03;;;15.24;nan
788;BME280;16074;42.708;23.312;2023-07-28T05:14:09;142003.78;;;15.28;nan
788;BME280;16074;42.708;23.312;2023-07-28T05:16:37;142015.88;;;15.33;nan
788;BME280;16074;42.708;23.312;2023-07-28T05:19:12;142038.81;;;15.43;nan
788;BME280;16074;42.708;23.312;2023-07-28T05:21:42;142040.06;;;15.43;nan
788;BME280;16074;42.708;23.312;2023-07-28T05:24:13;142050.94;;;15.48;nan
788;BME280;16074;42.708;23.312;2023-07-28T05:26:41;142063.03;;;15.52;nan
788;BME280;16074;42.708;23.312;2023-07-28T05:29:10;142093.25;;;15.65;nan
788;BME280;16074;42.708;23.312;2023-07-28T05:31:39;142107.78;;;15.71;nan
788;BME280;16074;42.708;23.312;2023-07-28T05:34:17;142117.47;;;15.75;nan
788;BME280;16074;42.708;23.312;2023-07-28T05:36:47;142128.38;;;15.79;nan
788;BME280;16074;42.708;23.312;2023-07-28T05:39:16;142122.31;;;15.77;nan
788;BME280;16074;42.708;23.312;2023-07-28T05:41:45;142148.94;;;15.88;nan
788;BME280;16074;42.708;23.312;2023-07-28T05:44:14;142168.28;;;15.96;nan
788;BME280;16074;42.708;23.312;2023-07-28T05:46:42;142163.47;;;15.94;nan
788;BME280;16074;42.708;23.312;2023-07-28T05:49:12;142169.47;;;15.96;nan
788;BME280;16074;42.708;23.312;2023-07-28T05:51:41;142185.25;;;16.03;nan
788;BME280;16074;42.708;23.312;2023-07-28T05:54:13;142205.81;;;16.11;nan
788;BME280;16074;42.708;23.312;2023-07-28T05:56:42;142232.44;;;16.22;nan
788;BME280;16074;42.708;23.312;2023-07-28T05:59:11;142238.47;;;16.25;nan
788;BME280;16074;42.708;23.312;2023-07-28T06:01:39;142260.31;;;16.34;nan
788;BME280;16074;42.708;23.312;2023-07-28T06:04:08;142290.56;;;16.46;nan
788;BME280;16074;42.708;23.312;2023-07-28T06:06:42;142314.78;;;16.56;nan
788;BME280;16074;42.708;23.312;2023-07-28T06:09:14;142330.56;;;16.63;nan
788;BME280;16074;42.708;23.312;2023-07-28T06:11:44;142355.97;;;16.73;nan
788;BME280;16074;42.708;23.312;2023-07-28T06:14:12;142386.22;;;16.85;nan
788;BME280;16074;42.708;23.312;2023-07-28T06:16:41;142411.69;;;16.96;nan
788;BME280;16074;42.708;23.312;2023-07-28T06:19:09;142454.06;;;17.13;nan
788;BME280;16074;42.708;23.312;2023-07-28T06:21:39;142496.47;;;17.31;nan
788;BME280;16074;42.708;23.312;2023-07-28T06:24:07;142548.59;;;17.52;nan
788;BME280;16074;42.708;23.312;2023-07-28T06:26:37;142551.03;;;17.53;nan
788;BME280;16074;42.708;23.312;2023-07-28T06:29:05;142543.75;;;17.50;nan
788;BME280;16074;42.708;23.312;2023-07-28T06:31:34;142571.63;;;17.62;nan
788;BME280;16074;42.708;23.312;2023-07-28T06:34:03;142615.25;;;17.80;nan
788;BME280;16074;42.708;23.312;2023-07-28T06:36:31;142637.09;;;17.89;nan
788;BME280;16074;42.708;23.312;2023-07-28T06:39:00;142645.56;;;17.92;nan
788;BME280;16074;42.708;23.312;2023-07-28T06:41:28;142680.75;;;18.06;nan
788;BME280;16074;42.708;23.312;2023-07-28T06:44:01;142703.75;;;18.16;nan
788;BME280;16074;42.708;23.312;2023-07-28T06:46:30;142737.78;;;18.30;nan
788;BME280;16074;42.708;23.312;2023-07-28T06:48:58;142782.63;;;18.48;nan
788;BME280;16074;42.708;23.312;2023-07-28T06:51:26;142803.22;;;18.57;nan
788;BME280;16074;42.708;23.312;2023-07-28T06:53:55;142846.91;;;18.75;nan
788;BME280;16074;42.708;23.312;2023-07-28T06:56:23;142897.88;;;18.96;nan
788;BME280;16074;42.708;23.312;2023-07-28T06:58:52;142930.63;;;19.09;nan
788;BME280;16074;42.708;23.312;2023-07-28T07:01:39;142962.25;;;19.22;nan
788;BME280;16074;42.708;23.312;2023-07-28T07:04:08;142993.75;;;19.35;nan
788;BME280;16074;42.708;23.312;2023-07-28T07:06:38;143036.28;;;19.52;nan
788;BME280;16074;42.708;23.312;2023-07-28T07:09:06;143083.63;;;19.72;nan
788;BME280;16074;42.708;23.312;2023-07-28T07:11:35;143120.00;;;19.87;nan
788;BME280;16074;42.708;23.312;2023-07-28T07:14:04;143160.16;;;20.03;nan
788;BME280;16074;42.708;23.312;2023-07-28T07:16:33;143214.81;;;20.26;nan
788;BME280;16074;42.708;23.312;2023-07-28T07:19:03;143264.59;;;20.46;nan
788;BME280;16074;42.708;23.312;2023-07-28T07:21:31;143275.53;;;20.50;nan
788;BME280;16074;42.708;23.312;2023-07-28T07:24:02;143322.91;;;20.70;nan
788;BME280;16074;42.708;23.312;2023-07-28T07:26:31;143384.97;;;20.95;nan
788;BME280;16074;42.708;23.312;2023-07-28T07:28:59;143425.06;;;21.12;nan
788;BME280;16074;42.708;23.312;2023-07-28T07:31:27;143527.19;;;21.54;nan
788;BME280;16074;42.708;23.312;2023-07-28T07:33:55;143578.31;;;21.74;nan
788;BME280;16074;42.708;23.312;2023-07-28T07:36:25;143635.47;;;21.98;nan
788;BME280;16074;42.708;23.312;2023-07-28T07:38:53;143706.00;;;22.27;nan
788;BME280;16074;42.708;23.312;2023-07-28T07:41:22;143796.13;;;22.64;nan
788;BME280;16074;42.708;23.312;2023-07-28T07:43:53;143906.94;;;23.09;nan
788;BME280;16074;42.708;23.312;2023-07-28T07:46:22;143938.59;;;23.22;nan
788;BME280;16074;42.708;23.312;2023-07-28T07:48:50;144033.56;;;23.61;nan
788;BME280;16074;42.708;23.312;2023-07-28T07:51:18;144101.84;;;23.89;nan
788;BME280;16074;42.708;23.312;2023-07-28T07:53:48;144155.44;;;24.11;nan
788;BME280;16074;42.708;23.312;2023-07-28T07:56:16;144201.78;;;24.29;nan
788;BME280;16074;42.708;23.312;2023-07-28T07:58:45;144257.91;;;24.52;nan
788;BME280;16074;42.708;23.312;2023-07-28T08:01:13;144301.75;;;24.70;nan
788;BME280;16074;42.708;23.312;2023-07-28T08:03:42;144377.38;;;25.01;nan
788;BME280;16074;42.708;23.312;2023-07-28T08:06:10;144395.66;;;25.09;nan
788;BME280;16074;42.708;23.312;2023-07-28T08:08:39;144470.09;;;25.39;nan
788;BME280;16074;42.708;23.312;2023-07-28T08:11:12;144549.41;;;25.71;nan
788;BME280;16074;42.708;23.312;2023-07-28T08:13:40;144630.00;;;26.04;nan
788;BME280;16074;42.708;23.312;2023-07-28T08:16:08;144634.84;;;26.06;nan
788;BME280;16074;42.708;23.312;2023-07-28T08:18:37;144686.13;;;26.27;nan
788;BME280;16074;42.708;23.312;2023-07-28T08:21:05;144758.22;;;26.57;nan
788;BME280;16074;42.708;23.312;2023-07-28T08:23:33;144797.28;;;26.73;nan
788;BME280;16074;42.708;23.312;2023-07-28T08:26:01;144854.69;;;26.96;nan
788;BME280;16074;42.708;23.312;2023-07-28T08:28:31;144858.31;;;26.97;nan
788;BME280;16074;42.708;23.312;2023-07-28T08:31:00;144897.47;;;27.13;nan
788;BME280;16074;42.708;23.312;2023-07-28T08:33:30;144833.94;;;26.87;nan
788;BME280;16074;42.708;23.312;2023-07-28T08:35:59;144963.47;;;27.40;nan
788;BME280;16074;42.708;23.312;2023-07-28T08:38:31;144765.53;;;26.60;nan
788;BME280;16074;42.708;23.312;2023-07-28T08:40:59;144876.69;;;27.05;nan
788;BME280;16074;42.708;23.312;2023-07-28T08:43:27;144896.28;;;27.13;nan
788;BME280;16074;42.708;23.312;2023-07-28T08:45:57;144984.22;;;27.49;nan
788;BME280;16074;42.708;23.312;2023-07-28T08:48:25;144972.00;;;27.44;nan
788;BME280;16074;42.708;23.312;2023-07-28T08:50:54;145079.56;;;27.88;nan
788;BME280;16074;42.708;23.312;2023-07-28T08:53:22;145173.69;;;28.26;nan
788;BME280;16074;42.708;23.312;2023-07-28T08:55:51;145245.88;;;28.55;nan
788;BME280;16074;42.708;23.312;2023-07-28T08:58:21;145285.03;;;28.71;nan
788;BME280;16074;42.708;23.312;2023-07-28T09:00:52;145354.81;;;29.00;nan
788;BME280;16074;42.708;23.312;2023-07-28T09:03:22;145392.72;;;29.15;nan
788;BME280;16074;42.708;23.312;2023-07-28T09:05:59;145473.50;;;29.48;nan
788;BME280;16074;42.708;23.312;2023-07-28T09:08:30;145480.84;;;29.51;nan
788;BME280;16074;42.708;23.312;2023-07-28T09:11:02;145483.28;;;29.52;nan
788;BME280;16074;42.708;23.312;2023-07-28T09:13:36;145464.94;;;29.44;nan
788;BME280;16074;42.708;23.312;2023-07-28T09:16:05;145516.38;;;29.65;nan
788;BME280;16074;42.708;23.312;2023-07-28T09:18:34;145559.19;;;29.83;nan
788;BME280;16074;42.708;23.312;2023-07-28T09:21:03;145571.44;;;29.88;nan
788;BME280;16074;42.708;23.312;2023-07-28T09:23:31;145603.31;;;30.01;nan
788;BME280;16074;42.708;23.312;2023-07-28T09:26:00;145649.81;;;30.20;nan
788;BME280;16074;42.708;23.312;2023-07-28T09:28:37;145725.75;;;30.51;nan
788;BME280;16074;42.708;23.312;2023-07-28T09:31:06;145783.38;;;30.74;nan
788;BME280;16074;42.708;23.312;2023-07-28T09:33:37;145772.31;;;30.69;nan
788;BME280;16074;42.708;23.312;2023-07-28T09:36:10;145750.25;;;30.60;nan
788;BME280;16074;42.708;23.312;2023-07-28T09:38:40;145538.41;;;29.74;nan
788;BME280;16074;42.708;23.312;2023-07-28T09:41:09;145573.88;;;29.89;nan
788;BME280;16074;42.708;23.312;2023-07-28T09:43:40;145707.38;;;30.43;nan
788;BME280;16074;42.708;23.312;2023-07-28T09:46:10;145799.28;;;30.80;nan
788;BME280;16074;42.708;23.312;2023-07-28T09:48:45;145839.69;;;30.97;nan
788;BME280;16074;42.708;23.312;2023-07-28T09:51:18;145897.31;;;31.20;nan
788;BME280;16074;42.708;23.312;2023-07-28T09:53:49;145972.06;;;31.51;nan
788;BME280;16074;42.708;23.312;2023-07-28T09:56:19;146016.25;;;31.69;nan
788;BME280;16074;42.708;23.312;2023-07-28T09:58:52;146068.97;;;31.90;nan
788;BME280;16074;42.708;23.312;2023-07-28T10:01:21;146154.88;;;32.25;nan
788;BME280;16074;42.708;23.312;2023-07-28T10:03:51;146232.13;;;32.56;nan
788;BME280;16074;42.708;23.312;2023-07-28T10:06:20;146245.59;;;32.62;nan
788;BME280;16074;42.708;23.312;2023-07-28T10:08:50;146223.53;;;32.53;nan
788;BME280;16074;42.708;23.312;2023-07-28T10:11:20;146243.16;;;32.61;nan
788;BME280;16074;42.708;23.312;2023-07-28T10:13:51;146298.41;;;32.83;nan
788;BME280;16074;42.708;23.312;2023-07-28T10:16:30;146318.03;;;32.91;nan
788;BME280;16074;42.708;23.312;2023-07-28T10:19:00;146304.56;;;32.86;nan
788;BME280;16074;42.708;23.312;2023-07-28T10:21:30;146397.84;;;33.23;nan
788;BME280;16074;42.708;23.312;2023-07-28T10:23:59;146471.44;;;33.53;nan
788;BME280;16074;42.708;23.312;2023-07-28T10:26:37;146531.63;;;33.78;nan
788;BME280;16074;42.708;23.312;2023-07-28T10:29:10;146640.97;;;34.22;nan
788;BME280;16074;42.708;23.312;2023-07-28T10:31:50;146690.13;;;34.42;nan
788;BME280;16074;42.708;23.312;2023-07-28T10:34:21;146717.16;;;34.53;nan
788;BME280;16074;42.708;23.312;2023-07-28T10:36:56;146789.66;;;34.82;nan
788;BME280;16074;42.708;23.312;2023-07-28T10:39:26;146929.78;;;35.39;nan
788;BME280;16074;42.708;23.312;2023-07-28T10:42:02;147046.59;;;35.86;nan
788;BME280;16074;42.708;23.312;2023-07-28T10:44:31;147105.66;;;36.10;nan
788;BME280;16074;42.708;23.312;2023-07-28T10:46:59;147209.00;;;36.52;nan
788;BME280;16074;42.708;23.312;2023-07-28T10:49:30;147323.47;;;36.99;nan
788;BME280;16074;42.708;23.312;2023-07-28T10:51:58;147334.53;;;37.03;nan
788;BME280;16074;42.708;23.312;2023-07-28T10:54:26;147407.13;;;37.32;nan
788;BME280;16074;42.708;23.312;2023-07-28T10:56:55;147515.47;;;37.76;nan
788;BME280;16074;42.708;23.312;2023-07-28T10:59:23;147600.47;;;38.11;nan
788;BME280;16074;42.708;23.312;2023-07-28T11:01:51;147716.28;;;38.57;nan
788;BME280;16074;42.708;23.312;2023-07-28T11:04:20;147821.06;;;39.00;nan
788;BME280;16074;42.708;23.312;2023-07-28T11:06:51;147824.78;;;39.01;nan
788;BME280;16074;42.708;23.312;2023-07-28T11:09:22;147870.41;;;39.20;nan
788;BME280;16074;42.708;23.312;2023-07-28T11:11:51;147902.44;;;39.33;nan
788;BME280;16074;42.708;23.312;2023-07-28T11:14:19;147812.44;;;38.96;nan
788;BME280;16074;42.708;23.312;2023-07-28T11:16:49;147809.97;;;38.95;nan
788;BME280;16074;42.708;23.312;2023-07-28T11:19:17;147886.41;;;39.26;nan
788;BME280;16074;42.708;23.312;2023-07-28T11:21:54;147976.41;;;39.63;nan
788;BME280;16074;42.708;23.312;2023-07-28T11:24:25;147867.94;;;39.19;nan
788;BME280;16074;42.708;23.312;2023-07-28T11:26:54;147933.25;;;39.45;nan
788;BME280;16074;42.708;23.312;2023-07-28T11:29:23;147998.59;;;39.71;nan
788;BME280;16074;42.708;23.312;2023-07-28T11:31:52;147996.16;;;39.70;nan
788;BME280;16074;42.708;23.312;2023-07-28T11:34:20;147961.63;;;39.57;nan
788;BME280;16074;42.708;23.312;2023-07-28T11:36:49;147355.44;;;37.11;nan
788;BME280;16074;42.708;23.312;2023-07-28T11:39:37;147247.13;;;36.68;nan
788;BME280;16074;42.708;23.312;2023-07-28T11:42:08;147386.22;;;37.24;nan
788;BME280;16074;42.708;23.312;2023-07-28T11:44:37;147495.78;;;37.68;nan
788;BME280;16074;42.708;23.312;2023-07-28T11:47:06;147296.34;;;36.88;nan
788;BME280;16074;42.708;23.312;2023-07-28T11:49:46;147237.28;;;36.64;nan
788;BME280;16074;42.708;23.312;2023-07-28T11:52:14;147324.69;;;36.99;nan
788;BME280;16074;42.708;23.312;2023-07-28T11:54:45;147335.78;;;37.03;nan
788;BME280;16074;42.708;23.312;2023-07-28T11:57:13;147493.38;;;37.67;nan
788;BME280;16074;42.708;23.312;2023-07-28T11:59:41;147570.94;;;37.99;nan
788;BME280;16074;42.708;23.312;2023-07-28T12:02:09;147367.75;;;37.16;nan
788;BME280;16074;42.708;23.312;2023-07-28T12:04:41;147593.09;;;38.08;nan
788;BME280;16074;42.708;23.312;2023-07-28T12:07:14;147638.63;;;38.26;nan
788;BME280;16074;42.708;23.312;2023-07-28T12:09:51;147759.47;;;38.75;nan
788;BME280;16074;42.708;23.312;2023-07-28T12:12:23;147863.00;;;39.17;nan
788;BME280;16074;42.708;23.312;2023-07-28T12:14:53;148001.06;;;39.72;nan
788;BME280;16074;42.708;23.312;2023-07-28T12:17:25;148056.53;;;39.95;nan
788;BME280;16074;42.708;23.312;2023-07-28T12:20:14;148018.34;;;39.79;nan
788;BME280;16074;42.708;23.312;2023-07-28T12:22:44;147917.19;;;39.39;nan
788;BME280;16074;42.708;23.312;2023-07-28T12:25:14;147980.13;;;39.64;nan
788;BME280;16074;42.708;23.312;2023-07-28T12:27:43;148008.47;;;39.75;nan
788;BME280;16074;42.708;23.312;2023-07-28T12:30:12;148091.13;;;40.09;nan
788;BME280;16074;42.708;23.312;2023-07-28T12:32:42;148194.72;;;40.51;nan
788;BME280;16074;42.708;23.312;2023-07-28T12:35:14;148273.69;;;40.83;nan
788;BME280;16074;42.708;23.312;2023-07-28T12:37:42;148337.88;;;41.08;nan
788;BME280;16074;42.708;23.312;2023-07-28T12:40:15;148383.56;;;41.27;nan
788;BME280;16074;42.708;23.312;2023-07-28T12:42:46;148115.78;;;40.19;nan
788;BME280;16074;42.708;23.312;2023-07-28T12:45:17;147977.66;;;39.63;nan
788;BME280;16074;42.708;23.312;2023-07-28T12:47:49;148160.13;;;40.37;nan
788;BME280;16074;42.708;23.312;2023-07-28T12:50:25;148155.22;;;40.35;nan
788;BME280;16074;42.708;23.312;2023-07-28T12:52:53;148294.69;;;40.91;nan
788;BME280;16074;42.708;23.312;2023-07-28T12:55:26;148441.53;;;41.50;nan
788;BME280;16074;42.708;23.312;2023-07-28T12:57:55;148662.59;;;42.39;nan
788;BME280;16074;42.708;23.312;2023-07-28T13:00:25;148510.72;;;41.78;nan
788;BME280;16074;42.708;23.312;2023-07-28T13:02:57;148667.56;;;42.41;nan
788;BME280;16074;42.708;23.312;2023-07-28T13:05:26;148761.47;;;42.79;nan
788;BME280;16074;42.708;23.312;2023-07-28T13:07:54;148595.94;;;42.13;nan
788;BME280;16074;42.708;23.312;2023-07-28T13:10:27;148675.00;;;42.44;nan
788;BME280;16074;42.708;23.312;2023-07-28T13:12:58;148087.41;;;40.07;nan
788;BME280;16074;42.708;23.312;2023-07-28T13:15:26;148256.41;;;40.76;nan
788;BME280;16074;42.708;23.312;2023-07-28T13:17:55;148024.47;;;39.82;nan
788;BME280;16074;42.708;23.312;2023-07-28T13:20:23;147388.69;;;37.25;nan
788;BME280;16074;42.708;23.312;2023-07-28T13:22:51;147482.25;;;37.63;nan
788;BME280;16074;42.708;23.312;2023-07-28T13:25:20;147654.72;;;38.33;nan
788;BME280;16074;42.708;23.312;2023-07-28T13:27:49;147648.53;;;38.30;nan
788;BME280;16074;42.708;23.312;2023-07-28T13:30:18;147647.34;;;38.30;nan
788;BME280;16074;42.708;23.312;2023-07-28T13:32:47;147781.63;;;38.84;nan
788;BME280;16074;42.708;23.312;2023-07-28T13:35:15;147824.78;;;39.01;nan
788;BME280;16074;42.708;23.312;2023-07-28T13:37:43;147993.69;;;39.69;nan